Time;durP1;ratioP1;P1;durP2;ratioP2;P2;SDS_P1;SDS_P2;PMS_P1;PMS_P2;Temp;Humidity;BMP_temperature;BMP_pressure;BME280_temperature;BME280_humidity;BME280_pressure;Samples;Min_cycle;Max_cycle;Signal;HPM_P1;HPM_P2
2023/10/30 00:01:15;;;;;;;10.57;1.65;;;;;;;;;;5054476;28;20033;-83
2023/10/30 00:03:40;;;;;;;12.73;2.00;;;;;;;;;;5060694;28;20196;-83
2023/10/30 00:06:06;;;;;;;14.93;2.42;;;;;;;;;;5058495;28;20024;-78
2023/10/30 00:08:32;;;;;;;10.05;2.08;;;;;;;;;;5051679;28;20020;-81
2023/10/30 00:10:57;;;;;;;10.77;1.90;;;;;;;;;;5060398;28;20029;-83
2023/10/30 00:13:22;;;;;;;14.68;2.20;;;;;;;;;;5054746;28;20454;-81
2023/10/30 00:15:48;;;;;;;12.48;2.10;;;;;;;;;;5060818;28;20023;-81
2023/10/30 00:18:13;;;;;;;11.15;2.03;;;;;;;;;;5059735;28;20100;-82
2023/10/30 00:20:39;;;;;;;12.15;2.25;;;;;;;;;;5058531;28;20108;-82
2023/10/30 00:23:05;;;;;;;16.50;2.33;;;;;;;;;;5053422;28;20028;-84
2023/10/30 00:25:30;;;;;;;8.10;1.73;;;;;;;;;;5060562;28;20024;-84
2023/10/30 00:27:59;;;;;;;12.50;2.20;;;;;;;;;;5060626;28;20029;-82
2023/10/30 00:30:28;;;;;;;9.82;2.00;;;;;;;;;;5059135;28;20039;-81
2023/10/30 00:32:54;;;;;;;12.60;1.98;;;;;;;;;;5056611;28;20048;-77
2023/10/30 00:35:19;;;;;;;15.00;2.50;;;;;;;;;;5054987;28;20052;-78
2023/10/30 00:37:44;;;;;;;11.18;1.92;;;;;;;;;;5045888;28;20025;-78
2023/10/30 00:40:11;;;;;;;9.90;2.03;;;;;;;;;;5057646;28;20031;-77
2023/10/30 00:42:36;;;;;;;14.70;1.90;;;;;;;;;;5059584;28;20037;-75
2023/10/30 00:45:04;;;;;;;13.32;2.10;;;;;;;;;;5059708;28;20040;-77
2023/10/30 00:47:30;;;;;;;16.33;2.55;;;;;;;;;;5059927;28;20025;-77
2023/10/30 00:49:55;;;;;;;12.52;2.00;;;;;;;;;;5059259;28;20092;-77
2023/10/30 00:52:20;;;;;;;11.32;2.13;;;;;;;;;;5058010;28;20438;-77
2023/10/30 00:54:46;;;;;;;14.27;2.20;;;;;;;;;;5059997;28;20036;-77
2023/10/30 00:57:11;;;;;;;10.43;1.92;;;;;;;;;;5058848;28;20035;-77
2023/10/30 00:59:37;;;;;;;14.80;2.50;;;;;;;;;;5055244;28;20029;-76
2023/10/30 01:02:02;;;;;;;10.32;1.92;;;;;;;;;;5055635;28;20021;-76
2023/10/30 01:04:28;;;;;;;12.15;2.05;;;;;;;;;;5059534;28;20025;-75
2023/10/30 01:06:53;;;;;;;14.77;2.05;;;;;;;;;;5060208;28;20102;-75
2023/10/30 01:09:18;;;;;;;12.43;1.85;;;;;;;;;;5057192;28;20089;-76
2023/10/30 01:11:44;;;;;;;11.95;2.17;;;;;;;;;;5060038;28;20036;-75
2023/10/30 01:14:09;;;;;;;11.25;2.15;;;;;;;;;;5052325;28;20096;-76
2023/10/30 01:16:34;;;;;;;11.57;2.05;;;;;;;;;;5042340;28;20083;-76
2023/10/30 01:19:00;;;;;;;11.60;2.00;;;;;;;;;;5059353;28;20078;-76
2023/10/30 01:21:25;;;;;;;10.52;1.92;;;;;;;;;;5054396;28;20056;-76
2023/10/30 01:23:51;;;;;;;13.95;2.42;;;;;;;;;;5056550;28;20138;-76
2023/10/30 01:26:16;;;;;;;9.18;2.08;;;;;;;;;;5059963;28;20033;-76
2023/10/30 01:28:41;;;;;;;8.57;1.83;;;;;;;;;;5058773;28;20040;-75
2023/10/30 01:31:07;;;;;;;14.18;2.00;;;;;;;;;;5054728;28;20037;-76
2023/10/30 01:33:32;;;;;;;14.52;2.15;;;;;;;;;;5059852;28;20021;-76
2023/10/30 01:35:58;;;;;;;10.18;1.92;;;;;;;;;;5064114;28;20316;-76
2023/10/30 01:38:23;;;;;;;10.73;2.00;;;;;;;;;;5063368;28;20037;-77
2023/10/30 01:40:49;;;;;;;11.27;2.10;;;;;;;;;;5063795;28;20523;-76
2023/10/30 01:43:15;;;;;;;13.38;2.17;;;;;;;;;;5062888;28;20089;-76
2023/10/30 01:45:41;;;;;;;11.88;2.00;;;;;;;;;;5063334;28;20029;-78
2023/10/30 01:48:06;;;;;;;9.88;1.73;;;;;;;;;;5053311;28;20029;-75
2023/10/30 01:50:33;;;;;;;7.43;1.80;;;;;;;;;;5059392;28;20071;-77
2023/10/30 01:52:58;;;;;;;7.50;1.95;;;;;;;;;;5059906;28;20136;-76
2023/10/30 01:55:24;;;;;;;12.50;2.20;;;;;;;;;;5045648;28;20313;-76
2023/10/30 01:57:50;;;;;;;8.95;1.90;;;;;;;;;;5062096;28;20033;-76
2023/10/30 02:00:16;;;;;;;11.15;2.10;;;;;;;;;;5060449;28;20044;-76
2023/10/30 02:02:42;;;;;;;9.90;2.15;;;;;;;;;;5058744;28;20016;-76
2023/10/30 02:05:09;;;;;;;7.85;2.25;;;;;;;;;;5043853;28;20051;-77
2023/10/30 02:07:36;;;;;;;9.45;2.00;;;;;;;;;;5062013;28;20084;-75
2023/10/30 02:10:03;;;;;;;9.77;1.92;;;;;;;;;;5061494;28;20079;-75
2023/10/30 02:12:28;;;;;;;7.78;1.63;;;;;;;;;;5060978;28;20119;-76
2023/10/30 02:14:55;;;;;;;7.60;1.80;;;;;;;;;;5056708;28;20032;-76
2023/10/30 02:17:20;;;;;;;10.38;2.10;;;;;;;;;;5061546;28;20121;-76
2023/10/30 02:19:46;;;;;;;8.82;2.00;;;;;;;;;;5061212;28;20316;-76
2023/10/30 02:22:11;;;;;;;9.48;2.10;;;;;;;;;;5056290;28;20032;-75
2023/10/30 02:24:36;;;;;;;11.73;2.20;;;;;;;;;;5061372;28;20024;-75
2023/10/30 02:27:02;;;;;;;7.68;1.65;;;;;;;;;;5061930;28;20036;-75
2023/10/30 02:29:27;;;;;;;6.38;1.50;;;;;;;;;;5058121;28;20028;-75
2023/10/30 02:31:54;;;;;;;7.70;1.80;;;;;;;;;;5058023;28;20059;-75
2023/10/30 02:34:19;;;;;;;11.15;1.95;;;;;;;;;;5060884;28;20063;-75
2023/10/30 02:36:44;;;;;;;9.38;2.10;;;;;;;;;;5044631;28;20064;-75
2023/10/30 02:39:10;;;;;;;9.65;2.17;;;;;;;;;;5061348;28;20521;-75
2023/10/30 02:41:35;;;;;;;10.10;2.05;;;;;;;;;;5061671;28;20036;-75
2023/10/30 02:44:01;;;;;;;7.72;1.80;;;;;;;;;;5062339;28;20060;-75
2023/10/30 02:46:27;;;;;;;7.68;1.83;;;;;;;;;;5060898;28;20033;-75
2023/10/30 02:48:52;;;;;;;7.00;2.17;;;;;;;;;;5061993;28;20236;-75
2023/10/30 02:51:18;;;;;;;7.03;1.77;;;;;;;;;;5061467;28;20037;-75
2023/10/30 02:53:44;;;;;;;6.63;1.70;;;;;;;;;;5060862;28;20025;-75
2023/10/30 02:56:09;;;;;;;7.18;1.80;;;;;;;;;;5061804;28;20031;-75
2023/10/30 02:58:35;;;;;;;8.77;1.77;;;;;;;;;;5056828;28;20025;-75
2023/10/30 03:01:02;;;;;;;8.55;1.80;;;;;;;;;;5061416;28;20032;-75
2023/10/30 03:03:28;;;;;;;7.85;1.85;;;;;;;;;;5060377;28;20079;-75
2023/10/30 03:05:53;;;;;;;8.00;1.60;;;;;;;;;;5053770;28;20312;-76
2023/10/30 03:08:19;;;;;;;9.40;1.70;;;;;;;;;;5061480;28;20044;-75
2023/10/30 03:10:47;;;;;;;8.48;1.80;;;;;;;;;;5061305;28;20025;-75
2023/10/30 03:13:12;;;;;;;8.82;1.80;;;;;;;;;;5060123;28;20091;-76
2023/10/30 03:15:38;;;;;;;7.63;2.05;;;;;;;;;;5060855;28;20435;-76
2023/10/30 03:18:04;;;;;;;12.15;2.40;;;;;;;;;;5051142;28;20045;-75
2023/10/30 03:20:29;;;;;;;8.05;1.90;;;;;;;;;;5061192;28;20135;-78
2023/10/30 03:22:54;;;;;;;10.32;1.90;;;;;;;;;;5060178;28;20024;-82
2023/10/30 03:25:20;;;;;;;8.93;2.13;;;;;;;;;;5061531;28;20025;-78
2023/10/30 03:27:45;;;;;;;8.73;1.77;;;;;;;;;;5060236;28;20029;-81
2023/10/30 03:30:11;;;;;;;6.90;1.67;;;;;;;;;;5057397;28;21305;-80
2023/10/30 03:32:36;;;;;;;16.00;2.33;;;;;;;;;;5043461;28;20028;-77
2023/10/30 03:35:02;;;;;;;10.52;2.13;;;;;;;;;;5059872;28;20251;-76
2023/10/30 03:37:27;;;;;;;10.13;2.20;;;;;;;;;;5052405;28;20032;-75
2023/10/30 03:39:53;;;;;;;11.20;2.60;;;;;;;;;;5060775;28;20028;-78
2023/10/30 03:42:19;;;;;;;11.40;2.50;;;;;;;;;;5055977;28;20071;-76
2023/10/30 03:44:45;;;;;;;15.93;3.00;;;;;;;;;;5059608;28;20017;-76
2023/10/30 03:47:10;;;;;;;9.27;2.63;;;;;;;;;;5059968;28;20115;-80
2023/10/30 03:49:35;;;;;;;11.27;2.72;;;;;;;;;;5060532;28;20021;-77
2023/10/30 03:52:02;;;;;;;9.57;2.40;;;;;;;;;;5060028;28;20049;-76
2023/10/30 03:54:27;;;;;;;11.57;2.58;;;;;;;;;;5060435;28;20025;-75
2023/10/30 03:56:53;;;;;;;10.95;2.60;;;;;;;;;;5052860;28;20045;-77
2023/10/30 03:59:18;;;;;;;9.48;2.20;;;;;;;;;;5056287;28;20256;-77
2023/10/30 04:01:43;;;;;;;8.27;2.22;;;;;;;;;;5053001;28;20646;-76
2023/10/30 04:04:09;;;;;;;8.57;2.13;;;;;;;;;;5049472;28;20434;-81
2023/10/30 04:06:38;;;;;;;8.98;1.90;;;;;;;;;;5059243;28;20151;-78
2023/10/30 04:09:06;;;;;;;9.10;1.65;;;;;;;;;;5040128;28;20037;-76
2023/10/30 04:11:32;;;;;;;12.27;3.08;;;;;;;;;;5057800;28;20092;-76
2023/10/30 04:13:58;;;;;;;6.93;1.90;;;;;;;;;;5057945;28;20033;-77
2023/10/30 04:16:24;;;;;;;9.75;2.10;;;;;;;;;;5055019;28;20359;-75
2023/10/30 04:18:49;;;;;;;7.55;1.88;;;;;;;;;;5055239;28;20029;-82
2023/10/30 04:21:14;;;;;;;10.23;1.80;;;;;;;;;;5053865;28;20255;-77
2023/10/30 04:23:42;;;;;;;10.02;2.58;;;;;;;;;;5054684;28;20021;-76
2023/10/30 04:26:08;;;;;;;4.43;1.75;;;;;;;;;;5057335;28;20242;-76
2023/10/30 04:28:33;;;;;;;7.50;1.77;;;;;;;;;;5053828;28;20079;-76
2023/10/30 04:30:59;;;;;;;7.65;1.83;;;;;;;;;;5056423;28;20045;-78
2023/10/30 04:33:24;;;;;;;8.95;2.00;;;;;;;;;;5057869;28;20129;-79
2023/10/30 04:35:49;;;;;;;7.00;2.30;;;;;;;;;;5049727;28;20040;-78
2023/10/30 04:38:15;;;;;;;10.73;2.20;;;;;;;;;;5059415;28;20037;-79
2023/10/30 04:40:40;;;;;;;7.13;2.00;;;;;;;;;;5056372;28;20024;-76
2023/10/30 04:43:06;;;;;;;8.10;2.10;;;;;;;;;;5054978;28;20566;-78
2023/10/30 04:45:31;;;;;;;10.25;2.47;;;;;;;;;;5053709;28;20029;-75
2023/10/30 04:47:56;;;;;;;9.27;2.20;;;;;;;;;;5055430;28;20056;-82
2023/10/30 04:50:22;;;;;;;12.13;2.42;;;;;;;;;;5058973;28;20056;-79
2023/10/30 04:52:47;;;;;;;13.52;2.58;;;;;;;;;;5054485;28;20045;-75
2023/10/30 04:55:12;;;;;;;15.43;2.50;;;;;;;;;;5058764;28;20286;-79
2023/10/30 04:57:38;;;;;;;9.77;2.20;;;;;;;;;;5048482;28;20040;-76
2023/10/30 05:00:05;;;;;;;11.48;2.20;;;;;;;;;;5054923;28;20029;-83
2023/10/30 05:02:31;;;;;;;10.93;2.60;;;;;;;;;;5053328;28;20108;-81
2023/10/30 05:04:56;;;;;;;9.00;2.35;;;;;;;;;;5049434;28;20429;-78
2023/10/30 05:07:21;;;;;;;8.15;2.00;;;;;;;;;;5056314;28;20048;-76
2023/10/30 05:09:47;;;;;;;11.27;2.25;;;;;;;;;;5056193;28;20092;-78
2023/10/30 05:12:12;;;;;;;15.60;2.30;;;;;;;;;;5056995;28;20082;-79
2023/10/30 05:14:37;;;;;;;10.18;2.20;;;;;;;;;;5055638;28;20028;-83
2023/10/30 05:17:03;;;;;;;8.45;2.30;;;;;;;;;;5055659;28;20044;-78
2023/10/30 05:19:29;;;;;;;7.43;2.20;;;;;;;;;;5056582;28;20053;-77
2023/10/30 05:21:54;;;;;;;8.38;2.10;;;;;;;;;;5050647;28;20393;-83
2023/10/30 05:24:19;;;;;;;8.20;2.28;;;;;;;;;;5056769;28;20385;-81
2023/10/30 05:26:45;;;;;;;7.88;2.55;;;;;;;;;;5045717;28;20215;-82
2023/10/30 05:29:10;;;;;;;10.13;2.33;;;;;;;;;;5059249;28;20024;-82
2023/10/30 05:31:36;;;;;;;7.38;2.10;;;;;;;;;;5056908;28;20025;-77
2023/10/30 05:34:01;;;;;;;8.27;2.10;;;;;;;;;;5054208;28;20033;-75
2023/10/30 05:36:26;;;;;;;8.52;2.30;;;;;;;;;;5057663;28;20220;-76
2023/10/30 05:38:52;;;;;;;7.35;2.45;;;;;;;;;;5045421;28;20208;-75
2023/10/30 05:41:17;;;;;;;10.60;2.35;;;;;;;;;;5039125;28;20245;-75
2023/10/30 05:43:42;;;;;;;5.75;2.25;;;;;;;;;;5055834;28;20029;-75
2023/10/30 05:46:08;;;;;;;9.98;2.40;;;;;;;;;;5053294;28;20409;-75
2023/10/30 05:48:33;;;;;;;10.18;2.60;;;;;;;;;;5048747;28;20033;-75
2023/10/30 05:50:58;;;;;;;6.63;2.30;;;;;;;;;;5032554;28;20040;-75
2023/10/30 05:53:24;;;;;;;5.53;2.00;;;;;;;;;;5052151;28;20021;-75
2023/10/30 05:55:49;;;;;;;9.95;2.22;;;;;;;;;;5054981;28;20150;-75
2023/10/30 05:58:14;;;;;;;13.45;2.50;;;;;;;;;;5055202;28;20060;-75
2023/10/30 06:00:40;;;;;;;13.48;2.25;;;;;;;;;;5055136;28;20233;-75
2023/10/30 06:03:09;;;;;;;13.05;2.05;;;;;;;;;;5053024;28;20134;-75
2023/10/30 06:05:35;;;;;;;8.07;2.00;;;;;;;;;;5057760;28;20321;-74
2023/10/30 06:08:01;;;;;;;9.05;2.13;;;;;;;;;;5052898;28;20096;-75
2023/10/30 06:10:26;;;;;;;7.80;1.95;;;;;;;;;;5054130;28;20194;-75
2023/10/30 06:12:51;;;;;;;6.38;2.30;;;;;;;;;;5046674;28;20339;-75
2023/10/30 06:15:17;;;;;;;10.23;2.00;;;;;;;;;;5052901;28;20056;-77
2023/10/30 06:17:43;;;;;;;8.65;2.60;;;;;;;;;;5060277;28;20045;-76
2023/10/30 06:20:09;;;;;;;8.13;2.55;;;;;;;;;;5045490;28;20025;-76
2023/10/30 06:22:34;;;;;;;8.93;2.22;;;;;;;;;;5052447;28;20026;-75
2023/10/30 06:25:00;;;;;;;7.53;2.20;;;;;;;;;;5058157;28;20028;-75
2023/10/30 06:27:26;;;;;;;11.65;2.10;;;;;;;;;;5056153;28;20032;-75
2023/10/30 06:29:52;;;;;;;7.43;2.08;;;;;;;;;;5054180;28;20087;-74
2023/10/30 06:32:17;;;;;;;9.07;2.33;;;;;;;;;;5056769;28;20079;-75
2023/10/30 06:34:43;;;;;;;7.03;2.10;;;;;;;;;;5058054;28;20033;-75
2023/10/30 06:37:09;;;;;;;9.10;2.00;;;;;;;;;;5059259;28;20055;-74
2023/10/30 06:39:34;;;;;;;7.97;2.40;;;;;;;;;;5057521;28;20048;-75
2023/10/30 06:41:59;;;;;;;4.93;1.83;;;;;;;;;;5055378;28;20413;-74
2023/10/30 06:44:25;;;;;;;5.40;1.98;;;;;;;;;;5057154;28;20276;-73
2023/10/30 06:46:51;;;;;;;6.15;2.28;;;;;;;;;;5056142;28;20131;-74
2023/10/30 06:49:19;;;;;;;6.90;2.40;;;;;;;;;;5057672;28;20037;-76
2023/10/30 06:51:44;;;;;;;7.93;3.05;;;;;;;;;;5051539;28;20036;-76
2023/10/30 06:54:10;;;;;;;9.93;2.85;;;;;;;;;;5057692;28;20028;-75
2023/10/30 06:56:36;;;;;;;7.50;2.40;;;;;;;;;;5057506;28;20024;-76
2023/10/30 06:59:02;;;;;;;5.80;2.10;;;;;;;;;;5054005;28;20175;-76
2023/10/30 07:01:29;;;;;;;5.80;2.20;;;;;;;;;;5051419;28;20037;-76
2023/10/30 07:03:54;;;;;;;6.57;2.38;;;;;;;;;;5052603;28;20117;-76
2023/10/30 07:06:20;;;;;;;8.93;2.55;;;;;;;;;;5056201;28;20480;-77
2023/10/30 07:08:45;;;;;;;6.63;2.50;;;;;;;;;;5047711;28;20017;-77
2023/10/30 07:11:11;;;;;;;3.67;2.28;;;;;;;;;;5054194;28;20037;-76
2023/10/30 07:13:36;;;;;;;8.43;2.50;;;;;;;;;;5052066;28;20025;-77
2023/10/30 07:16:01;;;;;;;8.18;2.42;;;;;;;;;;5038191;28;20041;-77
2023/10/30 07:18:29;;;;;;;6.70;2.40;;;;;;;;;;5049593;28;20084;-77
2023/10/30 07:20:54;;;;;;;5.05;2.20;;;;;;;;;;5052989;28;20025;-75
2023/10/30 07:23:19;;;;;;;5.57;2.33;;;;;;;;;;5054767;28;20037;-76
2023/10/30 07:25:45;;;;;;;4.82;2.20;;;;;;;;;;5050912;28;20328;-76
2023/10/30 07:28:11;;;;;;;6.85;2.20;;;;;;;;;;5057115;28;20094;-76
2023/10/30 07:30:36;;;;;;;8.70;2.20;;;;;;;;;;5053350;28;20049;-75
2023/10/30 07:33:02;;;;;;;5.95;2.42;;;;;;;;;;5053602;28;20056;-76
2023/10/30 07:35:27;;;;;;;5.82;2.40;;;;;;;;;;5053757;28;20043;-77
2023/10/30 07:37:53;;;;;;;4.97;2.50;;;;;;;;;;5053504;28;20424;-75
2023/10/30 07:40:19;;;;;;;7.20;2.67;;;;;;;;;;5053796;28;20021;-75
2023/10/30 07:42:44;;;;;;;5.30;2.67;;;;;;;;;;5053247;28;20055;-75
2023/10/30 07:45:11;;;;;;;8.63;2.80;;;;;;;;;;5054845;28;20029;-74
2023/10/30 07:47:37;;;;;;;5.88;2.67;;;;;;;;;;5043924;28;20021;-76
2023/10/30 07:50:04;;;;;;;5.50;2.80;;;;;;;;;;5049743;28;20472;-75
2023/10/30 07:52:29;;;;;;;5.90;2.75;;;;;;;;;;5057236;28;20051;-75
2023/10/30 07:54:54;;;;;;;6.38;2.70;;;;;;;;;;5054463;28;20036;-77
2023/10/30 07:57:20;;;;;;;5.18;2.53;;;;;;;;;;5055585;28;20056;-78
2023/10/30 07:59:47;;;;;;;4.80;2.65;;;;;;;;;;5047802;28;20253;-77
2023/10/30 08:02:12;;;;;;;6.72;2.70;;;;;;;;;;5051491;28;20024;-75
2023/10/30 08:04:38;;;;;;;5.38;2.60;;;;;;;;;;5051772;28;20077;-75
2023/10/30 08:07:03;;;;;;;5.47;2.80;;;;;;;;;;5052877;28;20033;-77
2023/10/30 08:09:29;;;;;;;4.97;2.47;;;;;;;;;;5053154;28;20439;-76
2023/10/30 08:11:55;;;;;;;5.28;2.50;;;;;;;;;;5055561;28;20040;-76
2023/10/30 08:14:21;;;;;;;4.18;2.50;;;;;;;;;;5052196;28;20256;-77
2023/10/30 08:16:46;;;;;;;4.47;2.45;;;;;;;;;;5056039;28;20021;-76
2023/10/30 08:19:11;;;;;;;5.72;2.63;;;;;;;;;;5052243;28;20044;-77
2023/10/30 08:21:37;;;;;;;5.97;3.13;;;;;;;;;;5052719;28;20220;-77
2023/10/30 08:24:02;;;;;;;5.82;3.20;;;;;;;;;;5048912;28;20047;-76
2023/10/30 08:26:29;;;;;;;7.85;3.45;;;;;;;;;;5053919;28;20025;-76
2023/10/30 08:28:54;;;;;;;7.10;3.58;;;;;;;;;;5049880;28;20021;-76
2023/10/30 08:31:22;;;;;;;7.10;3.53;;;;;;;;;;5052111;28;20032;-76
2023/10/30 08:33:48;;;;;;;8.40;3.75;;;;;;;;;;5050886;28;20079;-77
2023/10/30 08:36:20;;;;;;;6.45;3.83;;;;;;;;;;5053354;28;20033;-77
2023/10/30 08:38:45;;;;;;;9.13;4.20;;;;;;;;;;5052683;28;20240;-76
2023/10/30 08:41:15;;;;;;;9.07;4.20;;;;;;;;;;5053273;28;20101;-77
2023/10/30 08:43:40;;;;;;;7.28;4.55;;;;;;;;;;5046561;28;20021;-80
2023/10/30 08:46:06;;;;;;;6.80;3.65;;;;;;;;;;5057228;28;20029;-80
2023/10/30 08:48:31;;;;;;;8.50;3.88;;;;;;;;;;5053323;28;20078;-77
2023/10/30 08:50:56;;;;;;;8.97;4.07;;;;;;;;;;5052273;28;20458;-78
2023/10/30 08:53:22;;;;;;;7.80;4.35;;;;;;;;;;5054463;28;20091;-77
2023/10/30 08:55:47;;;;;;;8.35;4.10;;;;;;;;;;5053305;28;20044;-77
2023/10/30 08:58:13;;;;;;;7.93;4.00;;;;;;;;;;5052810;28;20028;-78
2023/10/30 09:00:38;;;;;;;6.95;3.90;;;;;;;;;;5053003;28;20025;-79
2023/10/30 09:03:03;;;;;;;8.45;4.00;;;;;;;;;;5053810;28;20128;-78
2023/10/30 09:05:49;;;;;;;7.68;3.70;;;;;;;;;;5049733;28;20041;-79
2023/10/30 09:11:47;;;;;;;;;;;;;;;;;;;;;
2023/10/30 09:14:42;;;;;;;6.32;2.90;;;;;;;;;;5056946;28;20056;-83
2023/10/30 09:20:52;;;;;;;6.55;3.00;;;;;;;;;;5048743;28;20039;-82
2023/10/30 09:30:30;;;;;;;5.97;3.33;;;;;;;;;;4877683;29;20235;-80
2023/10/30 09:32:58;;;;;;;6.93;3.72;;;;;;;;;;4867379;29;20413;-82
2023/10/30 09:35:28;;;;;;;6.32;3.75;;;;;;;;;;4872073;29;20039;-84
2023/10/30 09:37:57;;;;;;;8.32;3.88;;;;;;;;;;4911629;29;20036;-85
2023/10/30 09:40:26;;;;;;;9.10;4.10;;;;;;;;;;5048918;28;20025;-80
2023/10/30 09:42:53;;;;;;;7.75;4.15;;;;;;;;;;5036718;28;20036;-86
2023/10/30 09:45:22;;;;;;;7.05;3.90;;;;;;;;;;5026238;28;20067;-80
2023/10/30 09:47:48;;;;;;;9.10;3.97;;;;;;;;;;5048433;28;20032;-86
2023/10/30 09:50:15;;;;;;;10.52;4.50;;;;;;;;;;5045313;28;20110;-84
2023/10/30 09:52:40;;;;;;;7.70;4.30;;;;;;;;;;5030344;28;20029;-84
2023/10/30 09:55:16;;;;;;;9.18;4.40;;;;;;;;;;5051820;28;20025;-86
2023/10/30 09:57:42;;;;;;;12.23;5.10;;;;;;;;;;5042631;28;20044;-84
2023/10/30 10:00:15;;;;;;;11.02;4.97;;;;;;;;;;5051797;28;20021;-82
2023/10/30 10:02:41;;;;;;;8.75;4.15;;;;;;;;;;5032366;28;20082;-80
2023/10/30 10:05:08;;;;;;;10.27;4.75;;;;;;;;;;5047659;28;20041;-88
2023/10/30 10:07:34;;;;;;;7.47;4.78;;;;;;;;;;5047619;28;20035;-89
2023/10/30 10:10:01;;;;;;;8.70;4.90;;;;;;;;;;5050791;28;20469;-88
2023/10/30 10:12:26;;;;;;;7.95;4.30;;;;;;;;;;5045072;28;20377;-89
2023/10/30 10:14:52;;;;;;;11.25;6.50;;;;;;;;;;5051223;28;20489;-88
2023/10/30 10:17:17;;;;;;;11.35;6.97;;;;;;;;;;5051545;28;20410;-89
2023/10/30 10:19:47;;;;;;;10.38;6.78;;;;;;;;;;5048979;28;20036;-87
2023/10/30 10:22:29;;;;;;;10.80;6.78;;;;;;;;;;5047177;28;20025;-89
2023/10/30 10:24:56;;;;;;;14.60;7.50;;;;;;;;;;5050881;28;20083;-89
2023/10/30 10:27:24;;;;;;;12.20;6.82;;;;;;;;;;5051396;28;20108;-79
2023/10/30 10:29:57;;;;;;;12.88;6.28;;;;;;;;;;5050425;28;20013;-80
2023/10/30 10:32:26;;;;;;;10.18;5.38;;;;;;;;;;5050484;28;20094;-82
2023/10/30 10:35:02;;;;;;;11.45;5.00;;;;;;;;;;5050282;28;20028;-79
2023/10/30 10:37:28;;;;;;;10.40;5.18;;;;;;;;;;5042204;28;20033;-78
2023/10/30 10:39:54;;;;;;;8.48;5.50;;;;;;;;;;5034646;28;20037;-78
2023/10/30 10:42:21;;;;;;;9.05;4.85;;;;;;;;;;5050091;28;20495;-78
2023/10/30 10:44:49;;;;;;;10.20;5.40;;;;;;;;;;5040588;28;20043;-79
2023/10/30 10:47:15;;;;;;;9.55;5.35;;;;;;;;;;5052458;28;20056;-78
2023/10/30 10:49:41;;;;;;;9.02;5.05;;;;;;;;;;5051263;28;20501;-78
2023/10/30 10:52:14;;;;;;;8.25;4.57;;;;;;;;;;5046541;28;20056;-79
2023/10/30 10:55:02;;;;;;;9.57;4.80;;;;;;;;;;5045295;28;20036;-78
2023/10/30 10:57:34;;;;;;;7.07;4.55;;;;;;;;;;5048325;28;20029;-78
2023/10/30 11:00:06;;;;;;;13.55;4.25;;;;;;;;;;5046442;28;20579;-78
2023/10/30 11:02:37;;;;;;;8.70;3.55;;;;;;;;;;5043800;28;20506;-78
2023/10/30 11:05:05;;;;;;;8.40;3.53;;;;;;;;;;5031354;28;20050;-79
2023/10/30 11:07:38;;;;;;;8.55;4.07;;;;;;;;;;5051594;28;20503;-79
2023/10/30 11:10:17;;;;;;;6.22;3.53;;;;;;;;;;5042274;28;20086;-79
2023/10/30 11:13:03;;;;;;;6.30;3.30;;;;;;;;;;5050187;28;20037;-79
2023/10/30 11:15:34;;;;;;;5.80;2.92;;;;;;;;;;5047585;28;20028;-80
2023/10/30 11:18:17;;;;;;;6.03;2.80;;;;;;;;;;5050184;28;20332;-81
2023/10/30 11:20:46;;;;;;;4.93;2.78;;;;;;;;;;5055056;28;20037;-81
2023/10/30 11:23:12;;;;;;;4.82;2.90;;;;;;;;;;5048650;28;20044;-79
2023/10/30 11:26:11;;;;;;;4.10;2.90;;;;;;;;;;5050224;28;20032;-79
2023/10/30 11:28:35;;;;;;;7.15;3.30;;;;;;;;;;5052659;28;20025;-78
2023/10/30 11:31:03;;;;;;;4.45;3.10;;;;;;;;;;5056708;28;20052;-82
2023/10/30 11:33:30;;;;;;;6.80;3.10;;;;;;;;;;5057002;28;20032;-80
2023/10/30 11:36:18;;;;;;;5.07;3.10;;;;;;;;;;5060767;28;20028;-80
2023/10/30 11:39:10;;;;;;;6.30;2.70;;;;;;;;;;5048141;28;20021;-79
2023/10/30 11:41:37;;;;;;;6.57;2.63;;;;;;;;;;5038081;28;20048;-79
2023/10/30 11:44:16;;;;;;;5.40;3.17;;;;;;;;;;5050331;28;20037;-79
2023/10/30 11:46:47;;;;;;;7.93;2.90;;;;;;;;;;5049666;28;20036;-80
2023/10/30 11:49:13;;;;;;;5.32;2.80;;;;;;;;;;5049087;28;20448;-81
2023/10/30 11:51:46;;;;;;;6.45;2.90;;;;;;;;;;5045051;28;20077;-79
2023/10/30 11:54:12;;;;;;;4.63;2.40;;;;;;;;;;5048134;28;20602;-80
2023/10/30 11:56:38;;;;;;;5.40;2.83;;;;;;;;;;5049235;28;20087;-79
2023/10/30 11:59:04;;;;;;;6.28;2.90;;;;;;;;;;5049253;28;20052;-79
2023/10/30 12:01:33;;;;;;;5.95;3.00;;;;;;;;;;5049397;28;20107;-79
2023/10/30 12:03:59;;;;;;;6.82;2.85;;;;;;;;;;5047820;28;20064;-80
2023/10/30 12:06:25;;;;;;;5.22;2.63;;;;;;;;;;5048834;28;20032;-80
2023/10/30 12:08:51;;;;;;;7.45;2.28;;;;;;;;;;5048134;28;20021;-79
2023/10/30 12:11:16;;;;;;;4.88;2.28;;;;;;;;;;5048713;28;20389;-80
2023/10/30 12:13:42;;;;;;;4.88;2.70;;;;;;;;;;5048373;28;20587;-80
2023/10/30 12:16:07;;;;;;;4.22;2.58;;;;;;;;;;5048834;28;20036;-80
2023/10/30 12:18:35;;;;;;;5.78;2.60;;;;;;;;;;5048403;28;20037;-81
2023/10/30 12:21:01;;;;;;;4.45;2.30;;;;;;;;;;5033259;28;20024;-81
2023/10/30 12:23:26;;;;;;;6.85;2.95;;;;;;;;;;5045906;28;20520;-81
2023/10/30 12:26:02;;;;;;;5.28;2.40;;;;;;;;;;5048803;28;20025;-81
2023/10/30 12:28:35;;;;;;;5.60;2.65;;;;;;;;;;5031052;28;20037;-81
2023/10/30 12:31:18;;;;;;;4.68;2.38;;;;;;;;;;5034517;28;20055;-81
2023/10/30 12:33:43;;;;;;;4.65;2.72;;;;;;;;;;5048507;28;20033;-80
2023/10/30 12:36:08;;;;;;;3.85;2.25;;;;;;;;;;5048851;28;20020;-81
2023/10/30 12:38:34;;;;;;;3.83;2.70;;;;;;;;;;5047480;28;20037;-81
2023/10/30 12:41:06;;;;;;;5.90;2.47;;;;;;;;;;5048286;28;20025;-81
2023/10/30 12:43:37;;;;;;;4.97;2.60;;;;;;;;;;5048338;28;20111;-81
2023/10/30 12:46:02;;;;;;;3.65;2.40;;;;;;;;;;5048895;28;20090;-81
2023/10/30 12:48:28;;;;;;;3.78;2.50;;;;;;;;;;5048536;28;20471;-80
2023/10/30 12:50:53;;;;;;;4.38;1.80;;;;;;;;;;5036872;28;20051;-81
2023/10/30 12:53:19;;;;;;;4.80;2.80;;;;;;;;;;5049512;28;20115;-81
2023/10/30 12:55:44;;;;;;;4.22;2.20;;;;;;;;;;5049087;28;20028;-82
2023/10/30 12:58:09;;;;;;;7.95;2.50;;;;;;;;;;5048877;28;20032;-81
2023/10/30 13:00:35;;;;;;;3.38;1.90;;;;;;;;;;5048013;28;20025;-81
2023/10/30 13:03:00;;;;;;;3.13;1.92;;;;;;;;;;5042911;28;20525;-82
2023/10/30 13:05:25;;;;;;;3.15;1.90;;;;;;;;;;5030619;28;20028;-82
2023/10/30 13:07:51;;;;;;;3.17;1.95;;;;;;;;;;5049399;28;20028;-82
2023/10/30 13:10:16;;;;;;;3.03;2.00;;;;;;;;;;5051956;28;20112;-82
2023/10/30 13:12:41;;;;;;;4.00;2.00;;;;;;;;;;5055449;28;20033;-81
2023/10/30 13:15:07;;;;;;;4.70;2.10;;;;;;;;;;5058389;28;20021;-81
2023/10/30 13:17:32;;;;;;;3.38;1.88;;;;;;;;;;5058477;28;20092;-82
2023/10/30 13:19:58;;;;;;;4.13;1.73;;;;;;;;;;5059848;28;20040;-83
2023/10/30 13:22:23;;;;;;;3.22;1.70;;;;;;;;;;5043603;28;20055;-80
2023/10/30 13:24:49;;;;;;;3.63;2.10;;;;;;;;;;5059452;28;20396;-80
2023/10/30 13:27:14;;;;;;;3.85;2.10;;;;;;;;;;5064255;28;20056;-85
2023/10/30 13:29:39;;;;;;;2.92;2.00;;;;;;;;;;5064120;28;20344;-81
2023/10/30 13:32:05;;;;;;;7.03;2.42;;;;;;;;;;5075091;28;20041;-81
2023/10/30 13:34:30;;;;;;;3.53;2.10;;;;;;;;;;5063690;28;20033;-83
2023/10/30 13:36:56;;;;;;;4.15;2.55;;;;;;;;;;5063806;28;20037;-83
2023/10/30 13:39:21;;;;;;;11.30;5.40;;;;;;;;;;5043591;28;20075;-82
2023/10/30 13:41:46;;;;;;;4.35;2.15;;;;;;;;;;5063805;28;20029;-81
2023/10/30 13:44:12;;;;;;;3.13;1.60;;;;;;;;;;5063573;28;20025;-83
2023/10/30 13:46:38;;;;;;;4.38;1.92;;;;;;;;;;5062573;28;20028;-80
2023/10/30 13:49:03;;;;;;;3.38;1.60;;;;;;;;;;5062506;28;20029;-79
2023/10/30 13:51:28;;;;;;;5.80;1.95;;;;;;;;;;5057095;28;20040;-83
2023/10/30 13:53:55;;;;;;;4.68;1.70;;;;;;;;;;5063058;28;20328;-82
2023/10/30 13:56:21;;;;;;;3.70;1.77;;;;;;;;;;5063631;28;20033;-82
2023/10/30 13:58:49;;;;;;;4.60;2.10;;;;;;;;;;5063678;28;20347;-81
2023/10/30 14:01:16;;;;;;;2.58;1.42;;;;;;;;;;5063462;28;20071;-83
2023/10/30 14:03:42;;;;;;;5.90;1.40;;;;;;;;;;5056524;28;20034;-81
2023/10/30 14:06:07;;;;;;;4.85;2.38;;;;;;;;;;5065025;28;20100;-81
2023/10/30 14:08:33;;;;;;;6.18;3.58;;;;;;;;;;5059751;28;20029;-82
2023/10/30 14:10:58;;;;;;;5.38;2.88;;;;;;;;;;5062556;28;20135;-82
2023/10/30 14:13:23;;;;;;;2.72;1.30;;;;;;;;;;5063154;28;20224;-81
2023/10/30 14:15:49;;;;;;;3.28;1.40;;;;;;;;;;5063227;28;20404;-80
2023/10/30 14:18:14;;;;;;;3.58;2.17;;;;;;;;;;5062763;28;20088;-82
2023/10/30 14:20:40;;;;;;;7.47;4.28;;;;;;;;;;5054654;28;20096;-80
2023/10/30 14:23:05;;;;;;;5.90;3.20;;;;;;;;;;5060989;28;20033;-79
2023/10/30 14:25:30;;;;;;;4.45;2.88;;;;;;;;;;5057963;28;20064;-80
2023/10/30 14:27:58;;;;;;;2.80;1.60;;;;;;;;;;5056526;28;20103;-80
2023/10/30 14:30:24;;;;;;;2.25;1.20;;;;;;;;;;5051252;28;20017;-80
2023/10/30 14:32:49;;;;;;;3.85;2.38;;;;;;;;;;5058426;28;20025;-79
2023/10/30 14:35:15;;;;;;;10.02;6.13;;;;;;;;;;5054059;28;20217;-79
2023/10/30 14:37:40;;;;;;;2.83;1.95;;;;;;;;;;5058795;28;20036;-80
2023/10/30 14:40:06;;;;;;;6.00;3.05;;;;;;;;;;5060952;28;20275;-80
2023/10/30 14:42:31;;;;;;;6.97;3.72;;;;;;;;;;5056236;28;20044;-80
2023/10/30 14:44:57;;;;;;;6.07;3.60;;;;;;;;;;5054976;28;20033;-81
2023/10/30 14:47:22;;;;;;;4.80;2.30;;;;;;;;;;5051911;28;20029;-81
2023/10/30 14:49:48;;;;;;;4.95;2.90;;;;;;;;;;5060817;28;20036;-80
2023/10/30 14:52:13;;;;;;;5.25;3.28;;;;;;;;;;5057692;28;20047;-80